createdAt,value
2018-02-17T00:00:23.938Z,8.80
2018-02-17T00:02:51.570Z,9.23
2018-02-17T00:05:19.230Z,9.00
2018-02-17T00:07:47.583Z,8.40
2018-02-17T00:10:15.121Z,9.02
2018-02-17T00:12:42.723Z,9.75
2018-02-17T00:15:10.314Z,9.50
2018-02-17T00:17:37.885Z,9.02
2018-02-17T00:20:06.203Z,9.73
2018-02-17T00:22:34.697Z,8.55
2018-02-17T00:25:02.227Z,8.88
2018-02-17T00:27:29.766Z,9.10
2018-02-17T00:29:57.409Z,8.43
2018-02-17T00:32:24.933Z,9.68
2018-02-17T00:34:52.535Z,8.85
2018-02-17T00:37:20.091Z,9.05
2018-02-17T00:39:48.504Z,8.15
2018-02-17T00:42:16.056Z,8.75
2018-02-17T00:44:43.620Z,8.18
2018-02-17T00:47:11.947Z,7.97
2018-02-17T00:49:39.560Z,7.87
2018-02-17T00:52:07.932Z,8.52
2018-02-17T00:54:35.492Z,7.05
2018-02-17T00:57:03.052Z,6.97
2018-02-17T00:59:30.618Z,6.93
2018-02-17T01:01:58.187Z,7.95
2018-02-17T01:04:25.727Z,7.07
2018-02-17T01:06:53.412Z,7.25
2018-02-17T01:09:20.954Z,7.32
2018-02-17T01:11:48.541Z,7.30
2018-02-17T01:14:16.140Z,6.57
2018-02-17T01:16:43.699Z,7.43
2018-02-17T01:19:11.255Z,7.18
2018-02-17T01:21:38.812Z,7.30
2018-02-17T01:24:06.360Z,6.97
2018-02-17T01:26:33.896Z,8.05
2018-02-17T01:29:02.192Z,6.87
2018-02-17T01:31:29.751Z,6.85
2018-02-17T01:33:57.290Z,7.75
2018-02-17T01:36:24.870Z,6.90
2018-02-17T01:38:53.176Z,6.87
2018-02-17T01:41:20.717Z,7.00
2018-02-17T01:43:49.026Z,7.05
2018-02-17T01:46:16.566Z,6.97
2018-02-17T01:48:44.898Z,6.72
2018-02-17T01:51:12.437Z,6.78
2018-02-17T01:53:39.961Z,6.60
2018-02-17T01:56:07.520Z,6.55
2018-02-17T01:58:35.085Z,6.75
2018-02-17T02:01:02.643Z,6.45
2018-02-17T02:03:30.179Z,6.20
2018-02-17T02:05:57.721Z,6.68
2018-02-17T02:08:25.266Z,5.68
2018-02-17T02:10:53.564Z,6.25
2018-02-17T02:13:21.125Z,5.90
2018-02-17T02:15:49.412Z,6.20
2018-02-17T02:18:16.961Z,6.30
2018-02-17T02:20:45.257Z,6.12
2018-02-17T02:23:13.570Z,6.15
2018-02-17T02:25:41.912Z,7.07
2018-02-17T02:28:10.217Z,6.53
2018-02-17T02:30:37.747Z,7.07
2018-02-17T02:33:05.322Z,6.53
2018-02-17T02:35:32.841Z,6.40
2018-02-17T02:38:00.423Z,7.03
2018-02-17T02:40:27.947Z,7.22
2018-02-17T02:42:55.534Z,7.65
2018-02-17T02:45:23.087Z,7.32
2018-02-17T02:47:50.681Z,7.60
2018-02-17T02:50:18.256Z,7.47
2018-02-17T02:52:45.793Z,8.13
2018-02-17T02:55:13.317Z,7.75
2018-02-17T02:57:41.612Z,7.95
2018-02-17T03:00:09.905Z,8.07
2018-02-17T03:02:37.523Z,7.72
2018-02-17T03:05:05.050Z,8.07
2018-02-17T03:07:32.611Z,8.52
2018-02-17T03:10:00.143Z,8.13
2018-02-17T03:12:28.757Z,7.78
2018-02-17T03:14:56.321Z,8.30
2018-02-17T03:17:23.842Z,7.95
2018-02-17T03:19:51.395Z,8.02
2018-02-17T03:22:18.932Z,8.40
2018-02-17T03:24:46.465Z,8.35
2018-02-17T03:27:15.164Z,7.70
2018-02-17T03:29:42.714Z,8.10
2018-02-17T03:32:11.019Z,7.87
2018-02-17T03:34:38.556Z,8.60
2018-02-17T03:37:06.862Z,9.50
2018-02-17T03:39:34.420Z,8.90
2018-02-17T03:42:02.742Z,9.35
2018-02-17T03:44:30.280Z,9.68
2018-02-17T03:46:57.806Z,10.00
2018-02-17T03:49:25.404Z,9.45
2018-02-17T03:51:52.961Z,10.30
2018-02-17T03:54:21.264Z,9.63
2018-02-17T03:56:48.807Z,10.10
2018-02-17T03:59:17.156Z,10.38
2018-02-17T04:01:44.691Z,10.95
2018-02-17T04:04:12.250Z,10.25
2018-02-17T04:06:39.793Z,11.05
2018-02-17T04:09:07.347Z,10.70
2018-02-17T04:11:35.758Z,10.95
2018-02-17T04:14:03.281Z,9.82
2018-02-17T04:16:30.827Z,10.30
2018-02-17T04:18:58.376Z,10.88
2018-02-17T04:21:25.910Z,11.50
2018-02-17T04:23:53.469Z,10.35
2018-02-17T04:26:21.006Z,11.00
2018-02-17T04:28:49.327Z,10.20
2018-02-17T04:31:16.856Z,10.75
2018-02-17T04:33:44.384Z,10.68
2018-02-17T04:36:11.923Z,10.77
2018-02-17T04:38:39.476Z,11.43
2018-02-17T04:41:10.931Z,11.80
2018-02-17T04:43:42.938Z,11.35
2018-02-17T04:49:23.931Z,11.63
2018-02-17T04:52:04.216Z,10.57
2018-02-17T04:54:38.057Z,11.68
2018-02-17T04:57:08.226Z,12.18
2018-02-17T04:59:41.294Z,11.82
2018-02-17T05:02:24.482Z,12.37
2018-02-17T05:04:55.458Z,13.73
2018-02-17T05:07:37.881Z,12.45
2018-02-17T05:10:05.442Z,12.10
2018-02-17T05:12:32.978Z,13.25
2018-02-17T05:15:01.413Z,13.15
2018-02-17T05:17:30.477Z,13.70
2018-02-17T05:20:14.740Z,12.80
2018-02-17T05:22:42.266Z,13.30
2018-02-17T05:25:24.705Z,13.45
2018-02-17T05:27:53.812Z,13.15
2018-02-17T05:30:22.762Z,12.57
2018-02-17T05:32:55.862Z,14.35
2018-02-17T05:35:24.790Z,14.10
2018-02-17T05:37:52.387Z,13.57
2018-02-17T05:40:25.256Z,14.15
2018-02-17T05:42:52.793Z,13.70
2018-02-17T05:45:20.388Z,15.48
2018-02-17T05:48:05.427Z,12.63
2018-02-17T05:50:32.949Z,13.77
2018-02-17T05:53:00.592Z,14.00
2018-02-17T05:55:28.902Z,14.25
2018-02-17T05:57:56.424Z,14.70
2018-02-17T06:00:23.962Z,14.87
2018-02-17T06:02:51.515Z,14.80
2018-02-17T06:05:19.042Z,13.40
2018-02-17T06:07:46.574Z,14.05
2018-02-17T06:10:14.112Z,14.02
2018-02-17T06:12:42.146Z,14.63
2018-02-17T06:15:09.688Z,14.20
2018-02-17T06:17:37.246Z,15.15
2018-02-17T06:20:04.787Z,16.08
2018-02-17T06:22:32.322Z,14.82
2018-02-17T06:24:59.873Z,14.57
2018-02-17T06:27:27.432Z,15.45
2018-02-17T06:29:55.711Z,15.20
2018-02-17T06:32:24.013Z,15.35
2018-02-17T06:34:51.548Z,15.75
2018-02-17T06:37:19.873Z,15.43
2018-02-17T06:39:47.402Z,15.40
2018-02-17T06:42:15.723Z,15.93
2018-02-17T06:44:43.262Z,15.52
2018-02-17T06:47:11.568Z,16.02
2018-02-17T06:49:39.131Z,15.15
2018-02-17T06:52:06.678Z,16.70
2018-02-17T06:54:34.218Z,16.30
2018-02-17T06:57:02.535Z,16.73
2018-02-17T06:59:30.059Z,16.50
2018-02-17T07:01:57.601Z,16.42
2018-02-17T07:04:25.144Z,16.73
2018-02-17T07:06:52.836Z,17.77
2018-02-17T07:09:20.382Z,17.35
2018-02-17T07:11:47.922Z,18.02
2018-02-17T07:14:15.488Z,18.58
2018-02-17T07:16:43.018Z,18.27
2018-02-17T07:19:10.579Z,18.35
2018-02-17T07:21:38.118Z,19.10
2018-02-17T07:24:05.658Z,18.98
2018-02-17T07:26:33.512Z,18.15
2018-02-17T07:29:01.045Z,18.85
2018-02-17T07:31:28.579Z,19.12
2018-02-17T07:33:56.115Z,19.12
2018-02-17T07:36:23.649Z,18.67
2018-02-17T07:38:51.211Z,18.00
2018-02-17T07:41:18.736Z,19.83
2018-02-17T07:43:46.284Z,18.87
2018-02-17T07:46:13.826Z,18.92
2018-02-17T07:48:42.140Z,18.85
2018-02-17T07:51:09.765Z,19.67
2018-02-17T07:53:38.084Z,20.35
2018-02-17T07:56:05.626Z,20.95
2018-02-17T07:58:33.925Z,21.17
2018-02-17T08:01:01.470Z,19.40
2018-02-17T08:03:29.809Z,21.15
2018-02-17T08:05:57.345Z,19.92
2018-02-17T08:08:24.944Z,20.37
2018-02-17T08:10:52.517Z,20.98
2018-02-17T08:13:20.049Z,21.12
2018-02-17T08:15:47.618Z,20.85
2018-02-17T08:18:15.145Z,21.37
2018-02-17T08:20:43.446Z,22.00
2018-02-17T08:23:11.004Z,23.02
2018-02-17T08:25:38.561Z,21.95
2018-02-17T08:28:06.121Z,22.62
2018-02-17T08:30:34.482Z,21.90
2018-02-17T08:33:01.972Z,22.02
2018-02-17T08:35:30.280Z,23.67
2018-02-17T08:37:57.852Z,21.52
2018-02-17T08:40:25.406Z,21.87
2018-02-17T08:42:52.950Z,22.25
2018-02-17T08:45:21.250Z,22.87
2018-02-17T08:47:48.790Z,22.15
2018-02-17T08:50:17.131Z,22.35
2018-02-17T08:52:44.698Z,22.30
2018-02-17T08:55:12.243Z,22.27
2018-02-17T08:57:39.778Z,23.85
2018-02-17T09:00:08.088Z,22.15
2018-02-17T09:02:35.620Z,22.70
2018-02-17T09:05:03.944Z,22.52
2018-02-17T09:07:31.479Z,23.33
2018-02-17T09:09:59.012Z,23.38
2018-02-17T09:12:26.549Z,24.05
2018-02-17T09:14:54.087Z,24.75
2018-02-17T09:17:21.650Z,24.63
2018-02-17T09:19:49.229Z,23.75
2018-02-17T09:22:16.788Z,23.98
2018-02-17T09:24:44.330Z,26.30
2018-02-17T09:27:12.652Z,25.20
2018-02-17T09:29:40.223Z,24.92
2018-02-17T09:32:07.754Z,25.50
2018-02-17T09:34:35.293Z,26.70
2018-02-17T09:37:03.607Z,25.27
2018-02-17T09:39:31.176Z,26.05
2018-02-17T09:41:58.741Z,25.98
2018-02-17T09:44:26.307Z,26.30
2018-02-17T09:46:53.928Z,24.70
2018-02-17T09:49:21.470Z,26.33
2018-02-17T09:51:49.026Z,26.33
2018-02-17T09:54:16.598Z,25.65
2018-02-17T09:56:44.274Z,26.02
2018-02-17T09:59:11.894Z,24.95
2018-02-17T10:01:40.355Z,27.83
2018-02-17T10:04:07.974Z,25.65
2018-02-17T10:06:35.707Z,26.40
2018-02-17T10:09:04.203Z,26.10
2018-02-17T10:11:31.986Z,26.20
2018-02-17T10:13:59.539Z,25.75
2018-02-17T10:16:27.863Z,26.10
2018-02-17T10:18:56.255Z,27.35
2018-02-17T10:21:23.864Z,25.52
2018-02-17T10:23:52.206Z,25.23
2018-02-17T10:26:19.977Z,26.73
2018-02-17T10:28:47.811Z,24.50
2018-02-17T10:31:15.374Z,23.85
2018-02-17T10:33:42.918Z,24.52
2018-02-17T10:36:11.467Z,23.23
2018-02-17T10:38:39.004Z,22.65
2018-02-17T10:41:06.718Z,19.65
2018-02-17T10:43:34.392Z,20.10
2018-02-17T10:46:01.962Z,19.90
2018-02-17T10:48:30.328Z,20.15
2018-02-17T10:50:57.881Z,20.08
2018-02-17T10:53:26.336Z,20.73
2018-02-17T10:55:53.881Z,20.12
2018-02-17T10:58:22.350Z,20.33
2018-02-17T11:00:49.914Z,19.55
2018-02-17T11:03:18.232Z,18.92
2018-02-17T11:05:46.031Z,18.60
2018-02-17T11:08:13.730Z,18.65
2018-02-17T11:10:41.331Z,17.62
2018-02-17T11:13:08.919Z,18.02
2018-02-17T11:15:36.465Z,17.85
2018-02-17T11:18:04.002Z,17.45
2018-02-17T11:20:32.421Z,16.65
2018-02-17T11:22:59.957Z,15.52
2018-02-17T11:25:28.263Z,14.73
2018-02-17T11:27:55.820Z,14.75
2018-02-17T11:30:24.138Z,14.57
2018-02-17T11:32:51.806Z,14.70
2018-02-17T11:35:19.481Z,13.48
2018-02-17T11:37:47.046Z,14.13
2018-02-17T11:40:14.558Z,12.95
2018-02-17T11:42:42.925Z,12.77
2018-02-17T11:45:10.503Z,12.70
2018-02-17T11:47:38.837Z,13.15
2018-02-17T11:50:06.414Z,12.15
2018-02-17T11:52:33.979Z,13.18
2018-02-17T11:55:01.592Z,12.20
2018-02-17T11:57:29.251Z,13.60
2018-02-17T11:59:57.561Z,12.98
2018-02-17T12:02:25.107Z,12.10
2018-02-17T12:04:53.490Z,13.07
2018-02-17T12:07:21.793Z,13.52
2018-02-17T12:09:49.354Z,12.88
2018-02-17T12:12:16.909Z,13.80
2018-02-17T12:14:44.471Z,13.90
2018-02-17T12:17:12.876Z,14.30
2018-02-17T12:19:40.410Z,12.10
2018-02-17T12:22:08.723Z,13.45
2018-02-17T12:24:36.285Z,13.93
2018-02-17T12:27:03.878Z,13.40
2018-02-17T12:29:31.422Z,12.75
2018-02-17T12:31:59.001Z,10.43
2018-02-17T12:34:26.541Z,11.95
2018-02-17T12:36:54.095Z,11.07
2018-02-17T12:39:22.445Z,11.70
2018-02-17T12:41:49.985Z,10.35
2018-02-17T12:44:17.656Z,10.95
2018-02-17T12:46:45.227Z,11.40
2018-02-17T12:49:12.778Z,13.93
2018-02-17T12:51:40.341Z,13.70
2018-02-17T12:54:07.895Z,16.17
2018-02-17T12:56:35.441Z,17.12
2018-02-17T12:59:03.747Z,16.37
2018-02-17T13:01:31.308Z,18.25
2018-02-17T13:03:58.905Z,19.90
2018-02-17T13:06:26.454Z,19.83
2018-02-17T13:08:54.051Z,19.62
2018-02-17T13:11:21.611Z,19.48
2018-02-17T13:13:49.182Z,20.25
2018-02-17T13:16:16.733Z,20.62
2018-02-17T13:18:44.297Z,20.33
2018-02-17T13:21:11.855Z,18.73
2018-02-17T13:23:39.440Z,21.65
2018-02-17T13:26:07.080Z,22.55
2018-02-17T13:28:34.619Z,22.33
2018-02-17T13:31:02.206Z,22.80
2018-02-17T13:33:29.963Z,21.65
2018-02-17T13:35:57.501Z,21.75
2018-02-17T13:38:25.086Z,24.15
2018-02-17T13:40:52.648Z,23.92
2018-02-17T13:43:20.967Z,25.15
2018-02-17T13:45:48.542Z,23.55
2018-02-17T13:48:16.093Z,22.30
2018-02-17T13:50:43.744Z,22.23
2018-02-17T13:53:11.316Z,24.02
2018-02-17T13:55:38.849Z,21.67
2018-02-17T13:58:07.167Z,23.48
2018-02-17T14:00:34.758Z,23.42
2018-02-17T14:03:02.304Z,24.33
2018-02-17T14:05:29.855Z,23.83
2018-02-17T14:07:57.574Z,23.77
2018-02-17T14:10:25.136Z,24.30
2018-02-17T14:12:52.674Z,24.23
2018-02-17T14:15:20.241Z,23.48
2018-02-17T14:17:49.317Z,24.63
2018-02-17T14:20:16.859Z,22.48
2018-02-17T14:22:45.216Z,22.95
2018-02-17T14:25:12.811Z,23.85
2018-02-17T14:27:41.139Z,24.20
2018-02-17T14:30:08.711Z,21.30
2018-02-17T14:32:36.258Z,24.02
2018-02-17T14:35:03.841Z,22.08
2018-02-17T14:37:31.686Z,21.50
2018-02-17T14:39:59.232Z,21.55
2018-02-17T14:42:27.537Z,22.73
2018-02-17T14:44:57.740Z,22.13
2018-02-17T14:47:25.800Z,20.98
2018-02-17T14:49:54.310Z,21.05
2018-02-17T14:52:22.101Z,21.27
2018-02-17T14:54:49.876Z,20.88
2018-02-17T14:57:17.626Z,21.98
2018-02-17T14:59:45.391Z,20.90
2018-02-17T15:02:15.780Z,22.87
2018-02-17T15:04:43.578Z,24.25
2018-02-17T15:07:11.352Z,24.35
2018-02-17T15:09:40.141Z,22.00
2018-02-17T15:12:07.958Z,21.52
2018-02-17T15:14:35.687Z,20.45
2018-02-17T15:17:05.014Z,22.67
2018-02-17T15:19:35.872Z,20.88
2018-02-17T15:22:04.443Z,22.62
2018-02-17T15:24:32.102Z,23.30
2018-02-17T15:26:59.788Z,23.20
2018-02-17T15:29:27.439Z,21.77
2018-02-17T15:31:55.083Z,23.73
2018-02-17T15:34:22.613Z,24.90
2018-02-17T15:36:50.260Z,23.87
2018-02-17T15:39:18.102Z,25.23
2018-02-17T15:41:46.419Z,23.67
2018-02-17T15:44:13.992Z,24.02
2018-02-17T15:46:41.595Z,25.25
2018-02-17T15:49:09.134Z,26.75
2018-02-17T15:51:36.690Z,28.50
2018-02-17T15:54:04.329Z,27.02
2018-02-17T15:56:31.868Z,27.48
2018-02-17T15:59:00.227Z,25.50
2018-02-17T16:01:31.335Z,22.87
2018-02-17T16:03:59.235Z,24.23
2018-02-17T16:06:26.802Z,24.37
2018-02-17T16:08:54.351Z,23.02
2018-02-17T16:11:22.184Z,23.30
2018-02-17T16:13:50.496Z,23.95
2018-02-17T16:16:18.063Z,23.95
2018-02-17T16:18:45.613Z,23.08
2018-02-17T16:21:13.176Z,23.60
2018-02-17T16:23:40.740Z,23.27
2018-02-17T16:26:08.287Z,24.85
2018-02-17T16:28:36.593Z,25.80
2018-02-17T16:31:04.149Z,27.58
2018-02-17T16:33:31.694Z,27.33
2018-02-17T16:36:00.041Z,26.37
2018-02-17T16:38:27.594Z,26.25
2018-02-17T16:40:55.161Z,24.87
2018-02-17T16:43:22.716Z,24.63
2018-02-17T16:45:50.260Z,23.38
2018-02-17T16:48:18.926Z,23.98
2018-02-17T16:50:46.476Z,24.50
2018-02-17T16:53:14.020Z,24.10
2018-02-17T16:55:41.563Z,25.08
2018-02-17T16:58:09.100Z,25.60
2018-02-17T17:00:37.848Z,26.55
2018-02-17T17:03:06.159Z,27.52
2018-02-17T17:05:33.712Z,26.92
2018-02-17T17:08:01.260Z,27.70
2018-02-17T17:10:28.795Z,26.23
2018-02-17T17:12:56.370Z,28.83
2018-02-17T17:15:23.906Z,28.77
2018-02-17T17:17:52.240Z,30.35
2018-02-17T17:20:19.810Z,30.70
2018-02-17T17:22:47.389Z,30.45
2018-02-17T17:25:15.306Z,29.05
2018-02-17T17:27:42.993Z,26.83
2018-02-17T17:30:10.597Z,26.70
2018-02-17T17:32:38.140Z,25.73
2018-02-17T17:35:05.687Z,25.60
2018-02-17T17:37:33.260Z,25.98
2018-02-17T17:40:00.793Z,27.75
2018-02-17T17:42:29.099Z,27.58
2018-02-17T17:44:56.654Z,27.25
2018-02-17T17:47:24.258Z,27.90
2018-02-17T17:49:51.835Z,26.95
2018-02-17T17:52:19.379Z,26.58
2018-02-17T17:54:47.003Z,28.05
2018-02-17T17:57:14.547Z,25.65
2018-02-17T17:59:42.136Z,27.85
2018-02-17T18:02:10.468Z,25.98
2018-02-17T18:04:38.058Z,23.55
2018-02-17T18:07:05.605Z,24.80
2018-02-17T18:09:33.183Z,25.55
2018-02-17T18:12:00.741Z,27.85
2018-02-17T18:14:28.310Z,27.00
2018-02-17T18:16:55.927Z,28.87
2018-02-17T18:19:23.523Z,27.00
2018-02-17T18:21:51.069Z,27.17
2018-02-17T18:24:18.617Z,29.33
2018-02-17T18:26:46.284Z,28.17
2018-02-17T18:29:13.831Z,28.85
2018-02-17T18:31:42.178Z,28.40
2018-02-17T18:34:09.838Z,29.87
2018-02-17T18:36:37.375Z,29.35
2018-02-17T18:39:05.250Z,29.05
2018-02-17T18:41:32.832Z,29.17
2018-02-17T18:44:00.396Z,30.27
2018-02-17T18:46:27.932Z,32.55
2018-02-17T18:48:55.545Z,30.48
2018-02-17T18:51:23.913Z,30.52
2018-02-17T18:53:51.456Z,31.15
2018-02-17T18:56:18.992Z,30.62
2018-02-17T18:58:47.320Z,32.30
2018-02-17T19:01:14.852Z,32.88
2018-02-17T19:03:43.190Z,31.65
2018-02-17T19:06:10.753Z,33.08
2018-02-17T19:08:38.294Z,33.08
2018-02-17T19:11:05.838Z,33.00
2018-02-17T19:13:33.391Z,33.72
2018-02-17T19:16:01.753Z,33.13
2018-02-17T19:18:29.385Z,31.27
2018-02-17T19:20:56.953Z,32.65
2018-02-17T19:23:24.518Z,31.60
2018-02-17T19:25:52.217Z,31.48
2018-02-17T19:28:19.842Z,32.03
2018-02-17T19:30:47.387Z,30.60
2018-02-17T19:33:14.937Z,31.02
2018-02-17T19:35:43.316Z,30.45
2018-02-17T19:38:10.853Z,30.33
2018-02-17T19:40:38.446Z,32.13
2018-02-17T19:43:06.101Z,31.40
2018-02-17T19:45:33.748Z,29.63
2018-02-17T19:48:01.327Z,29.00
2018-02-17T19:50:28.932Z,28.70
2018-02-17T19:52:57.404Z,30.73
2018-02-17T19:55:24.979Z,30.37
2018-02-17T19:57:53.324Z,33.33
2018-02-17T20:00:20.851Z,31.87
2018-02-17T20:02:48.453Z,28.80
2018-02-17T20:05:16.034Z,31.62
2018-02-17T20:07:43.568Z,30.48
2018-02-17T20:10:11.165Z,30.85
2018-02-17T20:12:38.751Z,33.00
2018-02-17T20:15:07.064Z,33.30
2018-02-17T20:17:34.632Z,33.28
2018-02-17T20:20:02.189Z,32.50
2018-02-17T20:22:29.749Z,32.65
2018-02-17T20:24:57.308Z,33.90
2018-02-17T20:27:25.614Z,35.15
2018-02-17T20:29:53.285Z,34.45
2018-02-17T20:32:20.852Z,34.22
2018-02-17T20:34:48.464Z,39.10
2018-02-17T20:37:16.032Z,44.25
2018-02-17T20:39:43.573Z,41.60
2018-02-17T20:42:11.610Z,45.72
2018-02-17T20:44:39.173Z,57.72
2018-02-17T20:47:06.732Z,68.25
2018-02-17T20:49:34.309Z,71.43
2018-02-17T20:52:01.855Z,56.28
2018-02-17T20:54:30.221Z,59.30
2018-02-17T20:56:57.780Z,53.35
2018-02-17T20:59:25.355Z,64.20
2018-02-17T21:01:52.900Z,64.72
2018-02-17T21:04:20.465Z,93.25
2018-02-17T21:06:48.047Z,87.53
2018-02-17T21:09:15.605Z,69.68
2018-02-17T21:11:43.186Z,69.15
2018-02-17T21:14:10.733Z,57.53
2018-02-17T21:16:38.281Z,50.25
2018-02-17T21:19:05.858Z,46.20
2018-02-17T21:21:33.417Z,47.28
2018-02-17T21:24:00.992Z,44.70
2018-02-17T21:26:28.570Z,41.17
2018-02-17T21:28:56.183Z,51.33
2018-02-17T21:31:23.714Z,47.30
2018-02-17T21:33:52.036Z,38.53
2018-02-17T21:36:19.587Z,46.72
2018-02-17T21:38:47.145Z,55.95
2018-02-17T21:41:14.688Z,61.45
2018-02-17T21:43:43.045Z,53.58
2018-02-17T21:46:10.586Z,52.15
2018-02-17T21:48:38.146Z,53.50
2018-02-17T21:51:05.823Z,53.85
2018-02-17T21:53:33.375Z,53.92
2018-02-17T21:56:00.948Z,52.35
2018-02-17T21:58:28.498Z,50.83
2018-02-17T22:00:56.060Z,49.35
2018-02-17T22:03:23.614Z,45.83
2018-02-17T22:05:51.952Z,45.20
2018-02-17T22:08:19.829Z,48.80
2018-02-17T22:10:47.368Z,46.15
2018-02-17T22:13:14.942Z,48.72
2018-02-17T22:15:42.487Z,47.47
2018-02-17T22:18:10.038Z,47.45
2018-02-17T22:20:37.665Z,56.80
2018-02-17T22:23:05.195Z,56.95
2018-02-17T22:25:32.860Z,56.88
2018-02-17T22:28:00.433Z,54.33
2018-02-17T22:30:28.028Z,53.33
2018-02-17T22:32:55.692Z,48.20
2018-02-17T22:35:23.251Z,51.37
2018-02-17T22:37:50.799Z,46.47
2018-02-17T22:40:18.370Z,48.15
2018-02-17T22:42:45.903Z,45.80
2018-02-17T22:45:13.546Z,43.87
2018-02-17T22:47:41.071Z,44.55
2018-02-17T22:50:08.604Z,79.82
2018-02-17T22:52:36.163Z,50.58
2018-02-17T22:55:03.720Z,44.08
2018-02-17T22:57:31.292Z,43.10
2018-02-17T22:59:58.832Z,40.55
2018-02-17T23:02:27.142Z,42.47
2018-02-17T23:04:54.686Z,40.53
2018-02-17T23:07:22.267Z,42.67
2018-02-17T23:09:50.192Z,37.33
2018-02-17T23:12:17.774Z,40.67
2018-02-17T23:14:45.435Z,43.38
2018-02-17T23:17:13.005Z,40.92
2018-02-17T23:19:40.544Z,41.90
2018-02-17T23:22:08.878Z,42.92
2018-02-17T23:24:37.183Z,41.72
2018-02-17T23:27:04.754Z,43.60
2018-02-17T23:29:32.319Z,38.85
2018-02-17T23:31:59.857Z,41.22
2018-02-17T23:34:28.212Z,39.08
2018-02-17T23:36:55.781Z,43.13
2018-02-17T23:39:23.416Z,41.85
2018-02-17T23:41:50.994Z,43.97
2018-02-17T23:44:18.536Z,43.25
2018-02-17T23:46:46.387Z,42.70
2018-02-17T23:49:13.969Z,42.47
2018-02-17T23:51:41.541Z,42.88
2018-02-17T23:54:09.094Z,44.25
2018-02-17T23:56:36.817Z,45.03
2018-02-17T23:59:04.409Z,40.45
